sensor_id;sensor_type;location;lat;lon;timestamp;P1;durP1;ratioP1;P2;durP2;ratioP2
63664;SDS011;49820;33.966;73.390;2022-07-29T09:28:32;45.63;;;5.57;;
63664;SDS011;49820;33.966;73.390;2022-07-29T09:31:03;6.15;;;3.15;;
63664;SDS011;49820;33.966;73.390;2022-07-29T09:33:36;14.35;;;3.20;;
63664;SDS011;49820;33.966;73.390;2022-07-29T09:36:09;62.30;;;6.97;;
63664;SDS011;49820;33.966;73.390;2022-07-29T09:38:39;6.97;;;2.28;;
63664;SDS011;49820;33.966;73.390;2022-07-29T09:41:10;2.05;;;1.55;;
63664;SDS011;49820;33.966;73.390;2022-07-29T09:43:41;2.05;;;1.63;;
63664;SDS011;49820;33.966;73.390;2022-07-29T09:46:29;2.10;;;1.60;;
63664;SDS011;49820;33.966;73.390;2022-07-29T09:49:06;3.63;;;1.50;;
63664;SDS011;49820;33.966;73.390;2022-07-29T09:51:38;1.95;;;1.42;;
63664;SDS011;49820;33.966;73.390;2022-07-29T09:54:26;1.52;;;1.40;;
63664;SDS011;49820;33.966;73.390;2022-07-29T09:56:56;1.75;;;1.40;;
63664;SDS011;49820;33.966;73.390;2022-07-29T09:59:26;2.75;;;1.80;;
63664;SDS011;49820;33.966;73.390;2022-07-29T10:01:57;1.70;;;1.50;;
63664;SDS011;49820;33.966;73.390;2022-07-29T10:04:39;2.75;;;1.45;;
63664;SDS011;49820;33.966;73.390;2022-07-29T10:07:12;2.55;;;1.52;;
63664;SDS011;49820;33.966;73.390;2022-07-29T10:09:52;2.53;;;1.63;;
63664;SDS011;49820;33.966;73.390;2022-07-29T10:12:28;1.75;;;1.45;;
63664;SDS011;49820;33.966;73.390;2022-07-29T10:14:59;1.85;;;1.27;;
63664;SDS011;49820;33.966;73.390;2022-07-29T10:17:33;2.00;;;1.60;;
63664;SDS011;49820;33.966;73.390;2022-07-29T10:20:08;2.60;;;1.50;;
63664;SDS011;49820;33.966;73.390;2022-07-29T10:22:42;2.08;;;1.30;;
63664;SDS011;49820;33.966;73.390;2022-07-29T10:25:20;2.10;;;1.50;;
63664;SDS011;49820;33.966;73.390;2022-07-29T10:27:52;2.27;;;1.50;;
63664;SDS011;49820;33.966;73.390;2022-07-29T10:30:26;1.60;;;1.42;;
63664;SDS011;49820;33.966;73.390;2022-07-29T10:33:09;2.10;;;1.20;;
63664;SDS011;49820;33.966;73.390;2022-07-29T10:41:33;1.80;;;1.40;;
63664;SDS011;49820;33.966;73.390;2022-07-29T10:44:21;1.65;;;1.27;;
63664;SDS011;49820;33.966;73.390;2022-07-29T10:46:55;2.17;;;1.52;;
63664;SDS011;49820;33.966;73.390;2022-07-29T10:49:27;2.55;;;1.63;;
63664;SDS011;49820;33.966;73.390;2022-07-29T10:52:09;2.65;;;1.50;;
63664;SDS011;49820;33.966;73.390;2022-07-29T10:54:47;1.95;;;1.50;;
63664;SDS011;49820;33.966;73.390;2022-07-29T10:57:24;1.75;;;1.38;;
63664;SDS011;49820;33.966;73.390;2022-07-29T11:00:25;2.97;;;1.58;;
63664;SDS011;49820;33.966;73.390;2022-07-29T11:03:03;2.13;;;1.33;;
63664;SDS011;49820;33.966;73.390;2022-07-29T11:08:38;1.93;;;1.50;;
63664;SDS011;49820;33.966;73.390;2022-07-29T11:13:56;1.95;;;1.30;;
63664;SDS011;49820;33.966;73.390;2022-07-29T11:16:31;2.40;;;1.48;;
63664;SDS011;49820;33.966;73.390;2022-07-29T11:19:33;1.83;;;1.30;;
63664;SDS011;49820;33.966;73.390;2022-07-29T11:22:09;2.30;;;1.40;;
63664;SDS011;49820;33.966;73.390;2022-07-29T11:24:44;2.10;;;1.30;;
63664;SDS011;49820;33.966;73.390;2022-07-29T11:27:19;2.70;;;1.60;;
63664;SDS011;49820;33.966;73.390;2022-07-29T11:29:56;2.92;;;1.75;;
63664;SDS011;49820;33.966;73.390;2022-07-29T11:32:37;2.35;;;1.58;;
63664;SDS011;49820;33.966;73.390;2022-07-29T11:35:29;3.35;;;1.80;;
63664;SDS011;49820;33.966;73.390;2022-07-29T11:38:28;3.13;;;1.40;;
63664;SDS011;49820;33.966;73.390;2022-07-29T11:43:59;2.58;;;1.58;;
63664;SDS011;49820;33.966;73.390;2022-07-29T11:46:56;9.00;;;8.10;;
63664;SDS011;49820;33.966;73.390;2022-07-29T11:49:28;6.57;;;5.88;;
63664;SDS011;49820;33.966;73.390;2022-07-29T11:52:01;4.78;;;4.03;;
63664;SDS011;49820;33.966;73.390;2022-07-29T11:54:37;3.27;;;2.53;;
63664;SDS011;49820;33.966;73.390;2022-07-29T11:57:25;2.60;;;2.00;;
63664;SDS011;49820;33.966;73.390;2022-07-29T12:00:04;3.63;;;2.30;;
63664;SDS011;49820;33.966;73.390;2022-07-29T12:02:45;2.38;;;1.98;;
63664;SDS011;49820;33.966;73.390;2022-07-29T12:05:17;3.47;;;2.80;;
63664;SDS011;49820;33.966;73.390;2022-07-29T12:08:20;2.43;;;1.70;;
63664;SDS011;49820;33.966;73.390;2022-07-29T12:10:56;2.92;;;1.73;;
63664;SDS011;49820;33.966;73.390;2022-07-29T12:13:28;2.08;;;1.70;;
63664;SDS011;49820;33.966;73.390;2022-07-29T12:16:10;3.80;;;1.93;;
63664;SDS011;49820;33.966;73.390;2022-07-29T12:18:41;3.15;;;2.45;;
63664;SDS011;49820;33.966;73.390;2022-07-29T12:21:12;4.40;;;3.10;;
63664;SDS011;49820;33.966;73.390;2022-07-29T12:23:51;3.08;;;2.70;;
63664;SDS011;49820;33.966;73.390;2022-07-29T12:26:36;2.88;;;2.25;;
63664;SDS011;49820;33.966;73.390;2022-07-29T12:29:18;3.22;;;2.30;;
63664;SDS011;49820;33.966;73.390;2022-07-29T12:32:02;1.73;;;1.50;;
63664;SDS011;49820;33.966;73.390;2022-07-29T12:34:41;3.72;;;2.28;;
63664;SDS011;49820;33.966;73.390;2022-07-29T12:37:13;3.65;;;2.92;;
63664;SDS011;49820;33.966;73.390;2022-07-29T12:39:45;3.67;;;2.63;;
63664;SDS011;49820;33.966;73.390;2022-07-29T12:42:17;3.22;;;2.42;;
63664;SDS011;49820;33.966;73.390;2022-07-29T12:44:51;2.87;;;2.27;;
63664;SDS011;49820;33.966;73.390;2022-07-29T12:47:22;3.15;;;2.38;;
63664;SDS011;49820;33.966;73.390;2022-07-29T12:50:09;3.42;;;2.10;;
63664;SDS011;49820;33.966;73.390;2022-07-29T12:52:49;4.28;;;3.00;;
63664;SDS011;49820;33.966;73.390;2022-07-29T12:58:36;5.47;;;4.25;;
63664;SDS011;49820;33.966;73.390;2022-07-29T13:06:43;3.58;;;2.90;;
63664;SDS011;49820;33.966;73.390;2022-07-29T13:09:19;4.25;;;2.97;;
63664;SDS011;49820;33.966;73.390;2022-07-29T13:11:53;5.28;;;3.67;;
63664;SDS011;49820;33.966;73.390;2022-07-29T13:14:31;15.02;;;3.85;;
63664;SDS011;49820;33.966;73.390;2022-07-29T13:17:18;5.82;;;3.88;;
63664;SDS011;49820;33.966;73.390;2022-07-29T13:20:03;22.80;;;5.00;;
63664;SDS011;49820;33.966;73.390;2022-07-29T13:22:39;10.05;;;3.15;;
63664;SDS011;49820;33.966;73.390;2022-07-29T13:25:23;7.75;;;2.38;;
63664;SDS011;49820;33.966;73.390;2022-07-29T13:28:00;58.15;;;9.57;;
63664;SDS011;49820;33.966;73.390;2022-07-29T13:30:32;7.10;;;4.65;;
63664;SDS011;49820;33.966;73.390;2022-07-29T13:33:11;11.98;;;4.78;;
63664;SDS011;49820;33.966;73.390;2022-07-29T13:35:42;7.80;;;4.45;;
63664;SDS011;49820;33.966;73.390;2022-07-29T13:38:13;4.82;;;3.50;;
63664;SDS011;49820;33.966;73.390;2022-07-29T13:40:45;16.00;;;4.70;;
63664;SDS011;49820;33.966;73.390;2022-07-29T13:43:15;52.97;;;9.05;;
63664;SDS011;49820;33.966;73.390;2022-07-29T13:45:46;55.33;;;7.30;;
63664;SDS011;49820;33.966;73.390;2022-07-29T13:48:18;34.67;;;6.40;;
63664;SDS011;49820;33.966;73.390;2022-07-29T13:50:48;28.97;;;6.70;;
63664;SDS011;49820;33.966;73.390;2022-07-29T13:53:20;34.15;;;13.70;;
63664;SDS011;49820;33.966;73.390;2022-07-29T13:55:54;18.45;;;5.57;;
63664;SDS011;49820;33.966;73.390;2022-07-29T13:58:25;26.47;;;7.53;;
63664;SDS011;49820;33.966;73.390;2022-07-29T14:00:56;26.00;;;7.63;;
63664;SDS011;49820;33.966;73.390;2022-07-29T14:03:27;11.23;;;5.68;;
63664;SDS011;49820;33.966;73.390;2022-07-29T14:05:59;13.33;;;6.40;;
63664;SDS011;49820;33.966;73.390;2022-07-29T14:08:30;50.67;;;9.17;;
63664;SDS011;49820;33.966;73.390;2022-07-29T14:11:03;41.88;;;7.80;;
63664;SDS011;49820;33.966;73.390;2022-07-29T14:13:33;72.57;;;11.95;;
63664;SDS011;49820;33.966;73.390;2022-07-29T14:16:06;60.92;;;9.48;;
63664;SDS011;49820;33.966;73.390;2022-07-29T14:18:37;50.10;;;9.00;;
63664;SDS011;49820;33.966;73.390;2022-07-29T14:21:08;57.33;;;9.10;;
63664;SDS011;49820;33.966;73.390;2022-07-29T14:23:39;56.33;;;8.18;;
63664;SDS011;49820;33.966;73.390;2022-07-29T14:26:10;50.13;;;7.85;;
63664;SDS011;49820;33.966;73.390;2022-07-29T14:28:48;24.55;;;8.13;;
63664;SDS011;49820;33.966;73.390;2022-07-29T14:31:20;20.80;;;6.00;;
63664;SDS011;49820;33.966;73.390;2022-07-29T14:33:51;19.13;;;6.35;;
63664;SDS011;49820;33.966;73.390;2022-07-29T14:36:27;26.02;;;6.50;;
63664;SDS011;49820;33.966;73.390;2022-07-29T14:38:58;32.13;;;6.70;;
63664;SDS011;49820;33.966;73.390;2022-07-29T14:41:29;9.00;;;5.40;;
63664;SDS011;49820;33.966;73.390;2022-07-29T14:44:00;8.07;;;5.75;;
63664;SDS011;49820;33.966;73.390;2022-07-29T14:46:31;7.95;;;6.00;;
63664;SDS011;49820;33.966;73.390;2022-07-29T14:49:02;7.38;;;5.93;;
63664;SDS011;49820;33.966;73.390;2022-07-29T14:51:36;8.05;;;5.50;;
63664;SDS011;49820;33.966;73.390;2022-07-29T14:54:06;6.35;;;5.00;;
63664;SDS011;49820;33.966;73.390;2022-07-29T14:56:39;6.85;;;4.95;;
63664;SDS011;49820;33.966;73.390;2022-07-29T14:59:13;7.22;;;5.53;;
63664;SDS011;49820;33.966;73.390;2022-07-29T15:01:45;9.18;;;7.15;;
63664;SDS011;49820;33.966;73.390;2022-07-29T15:04:16;10.48;;;7.78;;
63664;SDS011;49820;33.966;73.390;2022-07-29T15:06:48;9.13;;;7.28;;
63664;SDS011;49820;33.966;73.390;2022-07-29T15:09:19;10.93;;;7.72;;
63664;SDS011;49820;33.966;73.390;2022-07-29T15:11:50;9.77;;;7.40;;
63664;SDS011;49820;33.966;73.390;2022-07-29T15:14:23;10.75;;;6.97;;
63664;SDS011;49820;33.966;73.390;2022-07-29T15:16:53;31.50;;;8.27;;
63664;SDS011;49820;33.966;73.390;2022-07-29T15:19:24;11.23;;;7.60;;
63664;SDS011;49820;33.966;73.390;2022-07-29T15:21:56;8.68;;;6.70;;
63664;SDS011;49820;33.966;73.390;2022-07-29T15:24:28;7.85;;;6.78;;
63664;SDS011;49820;33.966;73.390;2022-07-29T15:26:59;8.77;;;6.75;;
63664;SDS011;49820;33.966;73.390;2022-07-29T15:29:29;8.75;;;6.63;;
63664;SDS011;49820;33.966;73.390;2022-07-29T15:32:00;8.57;;;6.80;;
63664;SDS011;49820;33.966;73.390;2022-07-29T15:34:31;7.10;;;5.75;;
63664;SDS011;49820;33.966;73.390;2022-07-29T15:37:03;9.07;;;5.63;;
63664;SDS011;49820;33.966;73.390;2022-07-29T15:39:34;9.40;;;5.37;;
63664;SDS011;49820;33.966;73.390;2022-07-29T15:42:07;9.07;;;5.40;;
63664;SDS011;49820;33.966;73.390;2022-07-29T15:44:37;55.27;;;7.13;;
63664;SDS011;49820;33.966;73.390;2022-07-29T15:47:08;171.65;;;14.55;;
63664;SDS011;49820;33.966;73.390;2022-07-29T15:49:39;195.05;;;15.18;;
63664;SDS011;49820;33.966;73.390;2022-07-29T15:52:17;181.17;;;13.00;;
63664;SDS011;49820;33.966;73.390;2022-07-29T15:54:54;158.23;;;11.13;;
63664;SDS011;49820;33.966;73.390;2022-07-29T15:57:26;140.55;;;11.55;;
63664;SDS011;49820;33.966;73.390;2022-07-29T15:59:58;96.68;;;8.80;;
63664;SDS011;49820;33.966;73.390;2022-07-29T16:02:33;125.38;;;8.07;;
63664;SDS011;49820;33.966;73.390;2022-07-29T16:05:04;154.30;;;12.02;;
63664;SDS011;49820;33.966;73.390;2022-07-29T16:07:40;102.75;;;7.90;;
63664;SDS011;49820;33.966;73.390;2022-07-29T16:10:12;122.57;;;9.85;;
63664;SDS011;49820;33.966;73.390;2022-07-29T16:12:43;148.88;;;12.95;;
63664;SDS011;49820;33.966;73.390;2022-07-29T16:15:12;175.93;;;14.50;;
63664;SDS011;49820;33.966;73.390;2022-07-29T16:17:44;198.23;;;14.97;;
63664;SDS011;49820;33.966;73.390;2022-07-29T16:20:15;187.80;;;14.82;;
63664;SDS011;49820;33.966;73.390;2022-07-29T16:22:48;237.18;;;18.58;;
63664;SDS011;49820;33.966;73.390;2022-07-29T16:25:18;230.75;;;16.15;;
63664;SDS011;49820;33.966;73.390;2022-07-29T16:28:14;94.07;;;8.53;;
63664;SDS011;49820;33.966;73.390;2022-07-29T16:30:49;254.40;;;17.70;;
63664;SDS011;49820;33.966;73.390;2022-07-29T16:33:20;110.85;;;10.05;;
63664;SDS011;49820;33.966;73.390;2022-07-29T16:35:51;177.25;;;14.35;;
63664;SDS011;49820;33.966;73.390;2022-07-29T16:38:23;13.95;;;4.72;;
63664;SDS011;49820;33.966;73.390;2022-07-29T16:40:53;6.20;;;4.15;;
63664;SDS011;49820;33.966;73.390;2022-07-29T16:43:24;6.03;;;4.55;;
63664;SDS011;49820;33.966;73.390;2022-07-29T16:45:54;5.85;;;3.75;;
63664;SDS011;49820;33.966;73.390;2022-07-29T16:48:26;6.40;;;3.45;;
63664;SDS011;49820;33.966;73.390;2022-07-29T16:50:57;6.63;;;3.42;;
63664;SDS011;49820;33.966;73.390;2022-07-29T16:53:32;4.38;;;3.03;;
63664;SDS011;49820;33.966;73.390;2022-07-29T16:56:03;4.95;;;3.20;;
63664;SDS011;49820;33.966;73.390;2022-07-29T16:58:39;5.78;;;3.10;;
63664;SDS011;49820;33.966;73.390;2022-07-29T17:01:10;6.38;;;3.10;;
63664;SDS011;49820;33.966;73.390;2022-07-29T17:03:41;5.07;;;3.30;;
63664;SDS011;49820;33.966;73.390;2022-07-29T17:06:33;9.55;;;3.20;;
63664;SDS011;49820;33.966;73.390;2022-07-29T17:09:06;4.68;;;2.97;;
63664;SDS011;49820;33.966;73.390;2022-07-29T17:11:39;4.68;;;3.22;;
63664;SDS011;49820;33.966;73.390;2022-07-29T17:14:27;4.63;;;2.88;;
63664;SDS011;49820;33.966;73.390;2022-07-29T17:16:59;4.43;;;2.75;;
63664;SDS011;49820;33.966;73.390;2022-07-29T17:19:40;4.28;;;2.70;;
63664;SDS011;49820;33.966;73.390;2022-07-29T17:22:10;4.63;;;2.80;;
63664;SDS011;49820;33.966;73.390;2022-07-29T17:24:46;5.20;;;2.60;;
63664;SDS011;49820;33.966;73.390;2022-07-29T17:27:18;4.13;;;2.72;;
63664;SDS011;49820;33.966;73.390;2022-07-29T17:29:50;3.53;;;2.65;;
63664;SDS011;49820;33.966;73.390;2022-07-29T17:32:28;4.13;;;2.45;;
63664;SDS011;49820;33.966;73.390;2022-07-29T17:35:06;4.47;;;2.97;;
63664;SDS011;49820;33.966;73.390;2022-07-29T17:37:56;4.88;;;3.00;;
63664;SDS011;49820;33.966;73.390;2022-07-29T17:40:28;4.28;;;3.20;;
63664;SDS011;49820;33.966;73.390;2022-07-29T17:43:02;4.10;;;3.00;;
63664;SDS011;49820;33.966;73.390;2022-07-29T17:45:33;4.75;;;3.55;;
63664;SDS011;49820;33.966;73.390;2022-07-29T17:48:18;5.95;;;3.53;;
63664;SDS011;49820;33.966;73.390;2022-07-29T17:50:51;4.93;;;2.85;;
63664;SDS011;49820;33.966;73.390;2022-07-29T17:53:23;4.72;;;2.83;;
63664;SDS011;49820;33.966;73.390;2022-07-29T17:55:54;4.97;;;3.47;;
63664;SDS011;49820;33.966;73.390;2022-07-29T17:58:27;4.40;;;3.08;;
63664;SDS011;49820;33.966;73.390;2022-07-29T18:01:00;3.28;;;2.80;;
63664;SDS011;49820;33.966;73.390;2022-07-29T18:03:31;3.97;;;3.00;;
63664;SDS011;49820;33.966;73.390;2022-07-29T18:06:04;4.38;;;3.00;;
63664;SDS011;49820;33.966;73.390;2022-07-29T18:08:36;3.67;;;2.97;;
63664;SDS011;49820;33.966;73.390;2022-07-29T18:11:08;4.88;;;3.28;;
63664;SDS011;49820;33.966;73.390;2022-07-29T18:13:41;4.23;;;3.20;;
63664;SDS011;49820;33.966;73.390;2022-07-29T18:16:12;5.50;;;3.38;;
63664;SDS011;49820;33.966;73.390;2022-07-29T18:18:43;4.90;;;3.30;;
63664;SDS011;49820;33.966;73.390;2022-07-29T18:21:15;4.65;;;3.13;;
63664;SDS011;49820;33.966;73.390;2022-07-29T18:24:05;6.00;;;4.65;;
63664;SDS011;49820;33.966;73.390;2022-07-29T18:26:36;12.35;;;8.30;;
63664;SDS011;49820;33.966;73.390;2022-07-29T18:29:08;4.70;;;3.40;;
63664;SDS011;49820;33.966;73.390;2022-07-29T18:31:39;4.60;;;3.35;;
63664;SDS011;49820;33.966;73.390;2022-07-29T18:34:10;4.30;;;3.30;;
63664;SDS011;49820;33.966;73.390;2022-07-29T18:36:42;4.55;;;3.35;;
63664;SDS011;49820;33.966;73.390;2022-07-29T18:39:14;4.75;;;3.50;;
63664;SDS011;49820;33.966;73.390;2022-07-29T18:41:48;4.32;;;3.60;;
63664;SDS011;49820;33.966;73.390;2022-07-29T18:44:20;5.03;;;3.65;;
63664;SDS011;49820;33.966;73.390;2022-07-29T18:46:51;5.78;;;3.90;;
63664;SDS011;49820;33.966;73.390;2022-07-29T18:49:24;5.28;;;3.25;;
63664;SDS011;49820;33.966;73.390;2022-07-29T18:51:56;4.05;;;2.97;;
63664;SDS011;49820;33.966;73.390;2022-07-29T18:54:27;4.15;;;3.28;;
63664;SDS011;49820;33.966;73.390;2022-07-29T18:56:59;4.00;;;3.07;;
63664;SDS011;49820;33.966;73.390;2022-07-29T18:59:49;4.82;;;3.17;;
63664;SDS011;49820;33.966;73.390;2022-07-29T19:02:22;4.57;;;3.83;;
63664;SDS011;49820;33.966;73.390;2022-07-29T19:04:54;5.10;;;3.20;;
63664;SDS011;49820;33.966;73.390;2022-07-29T19:07:26;9.93;;;8.75;;
63664;SDS011;49820;33.966;73.390;2022-07-29T19:09:57;22.15;;;20.05;;
63664;SDS011;49820;33.966;73.390;2022-07-29T19:12:29;8.07;;;5.18;;
63664;SDS011;49820;33.966;73.390;2022-07-29T19:15:00;8.63;;;4.97;;
63664;SDS011;49820;33.966;73.390;2022-07-29T19:17:33;10.52;;;6.40;;
63664;SDS011;49820;33.966;73.390;2022-07-29T19:20:05;16.92;;;8.95;;
63664;SDS011;49820;33.966;73.390;2022-07-29T19:22:39;6.77;;;4.47;;
63664;SDS011;49820;33.966;73.390;2022-07-29T19:25:09;5.82;;;4.50;;
63664;SDS011;49820;33.966;73.390;2022-07-29T19:27:41;7.80;;;4.20;;
63664;SDS011;49820;33.966;73.390;2022-07-29T19:30:13;6.47;;;4.82;;
63664;SDS011;49820;33.966;73.390;2022-07-29T19:32:47;7.35;;;4.97;;
63664;SDS011;49820;33.966;73.390;2022-07-29T19:35:18;6.25;;;4.80;;
63664;SDS011;49820;33.966;73.390;2022-07-29T19:38:01;5.93;;;4.05;;
63664;SDS011;49820;33.966;73.390;2022-07-29T19:40:32;4.78;;;3.60;;
63664;SDS011;49820;33.966;73.390;2022-07-29T19:43:04;5.00;;;3.73;;
63664;SDS011;49820;33.966;73.390;2022-07-29T19:45:56;5.00;;;3.80;;
63664;SDS011;49820;33.966;73.390;2022-07-29T19:48:27;5.45;;;3.70;;
63664;SDS011;49820;33.966;73.390;2022-07-29T19:50:58;6.00;;;4.10;;
63664;SDS011;49820;33.966;73.390;2022-07-29T19:53:28;5.90;;;3.90;;
63664;SDS011;49820;33.966;73.390;2022-07-29T19:55:58;4.97;;;3.70;;
63664;SDS011;49820;33.966;73.390;2022-07-29T19:58:29;5.07;;;4.10;;
63664;SDS011;49820;33.966;73.390;2022-07-29T20:01:02;5.57;;;3.70;;
63664;SDS011;49820;33.966;73.390;2022-07-29T20:03:40;5.40;;;4.10;;
63664;SDS011;49820;33.966;73.390;2022-07-29T20:06:13;4.82;;;3.60;;
63664;SDS011;49820;33.966;73.390;2022-07-29T20:08:45;6.50;;;4.00;;
63664;SDS011;49820;33.966;73.390;2022-07-29T20:11:16;6.17;;;4.30;;
63664;SDS011;49820;33.966;73.390;2022-07-29T20:13:47;8.73;;;4.30;;
63664;SDS011;49820;33.966;73.390;2022-07-29T20:16:17;5.95;;;3.80;;
63664;SDS011;49820;33.966;73.390;2022-07-29T20:18:52;4.55;;;3.42;;
63664;SDS011;49820;33.966;73.390;2022-07-29T20:21:25;4.30;;;3.10;;
63664;SDS011;49820;33.966;73.390;2022-07-29T20:23:56;4.07;;;3.28;;
63664;SDS011;49820;33.966;73.390;2022-07-29T20:26:29;4.87;;;3.40;;
63664;SDS011;49820;33.966;73.390;2022-07-29T20:29:00;5.90;;;3.38;;
63664;SDS011;49820;33.966;73.390;2022-07-29T20:31:33;4.63;;;3.35;;
63664;SDS011;49820;33.966;73.390;2022-07-29T20:34:04;4.35;;;3.38;;
63664;SDS011;49820;33.966;73.390;2022-07-29T20:36:35;5.57;;;3.42;;
63664;SDS011;49820;33.966;73.390;2022-07-29T20:39:08;5.68;;;3.75;;
63664;SDS011;49820;33.966;73.390;2022-07-29T20:41:39;7.90;;;4.20;;
63664;SDS011;49820;33.966;73.390;2022-07-29T20:44:11;8.02;;;4.22;;
63664;SDS011;49820;33.966;73.390;2022-07-29T20:46:44;8.75;;;5.25;;
63664;SDS011;49820;33.966;73.390;2022-07-29T20:49:18;7.88;;;5.35;;
63664;SDS011;49820;33.966;73.390;2022-07-29T20:51:49;7.82;;;5.15;;
63664;SDS011;49820;33.966;73.390;2022-07-29T20:54:24;6.53;;;5.20;;
63664;SDS011;49820;33.966;73.390;2022-07-29T20:56:55;7.95;;;4.88;;
63664;SDS011;49820;33.966;73.390;2022-07-29T20:59:27;15.20;;;5.78;;
63664;SDS011;49820;33.966;73.390;2022-07-29T21:02:00;27.10;;;6.95;;
63664;SDS011;49820;33.966;73.390;2022-07-29T21:04:33;44.47;;;6.60;;
63664;SDS011;49820;33.966;73.390;2022-07-29T21:07:04;25.63;;;5.68;;
63664;SDS011;49820;33.966;73.390;2022-07-29T21:09:36;38.90;;;6.35;;
63664;SDS011;49820;33.966;73.390;2022-07-29T21:12:07;50.10;;;7.35;;
63664;SDS011;49820;33.966;73.390;2022-07-29T21:14:40;43.78;;;6.95;;
63664;SDS011;49820;33.966;73.390;2022-07-29T21:17:16;48.72;;;7.35;;
63664;SDS011;49820;33.966;73.390;2022-07-29T21:19:49;11.70;;;4.90;;
63664;SDS011;49820;33.966;73.390;2022-07-29T21:22:22;10.63;;;4.68;;
63664;SDS011;49820;33.966;73.390;2022-07-29T21:24:56;12.43;;;5.00;;
63664;SDS011;49820;33.966;73.390;2022-07-29T21:27:26;62.25;;;7.60;;
63664;SDS011;49820;33.966;73.390;2022-07-29T21:30:17;31.70;;;6.07;;
63664;SDS011;49820;33.966;73.390;2022-07-29T21:32:48;43.80;;;6.70;;
63664;SDS011;49820;33.966;73.390;2022-07-29T21:35:19;14.82;;;5.00;;
63664;SDS011;49820;33.966;73.390;2022-07-29T21:38:11;11.98;;;4.63;;
63664;SDS011;49820;33.966;73.390;2022-07-29T21:40:46;12.43;;;4.57;;
63664;SDS011;49820;33.966;73.390;2022-07-29T21:43:18;6.30;;;4.80;;
63664;SDS011;49820;33.966;73.390;2022-07-29T21:45:51;7.30;;;4.80;;
63664;SDS011;49820;33.966;73.390;2022-07-29T21:48:23;6.07;;;4.07;;
63664;SDS011;49820;33.966;73.390;2022-07-29T21:50:55;7.10;;;4.10;;
63664;SDS011;49820;33.966;73.390;2022-07-29T21:53:29;5.60;;;3.97;;
63664;SDS011;49820;33.966;73.390;2022-07-29T21:56:00;4.95;;;3.78;;
63664;SDS011;49820;33.966;73.390;2022-07-29T21:58:36;6.00;;;3.63;;
63664;SDS011;49820;33.966;73.390;2022-07-29T22:01:08;4.55;;;3.92;;
63664;SDS011;49820;33.966;73.390;2022-07-29T22:03:39;5.35;;;3.83;;
63664;SDS011;49820;33.966;73.390;2022-07-29T22:06:10;5.15;;;3.20;;
63664;SDS011;49820;33.966;73.390;2022-07-29T22:08:45;5.60;;;3.20;;
63664;SDS011;49820;33.966;73.390;2022-07-29T22:11:18;5.60;;;3.80;;
63664;SDS011;49820;33.966;73.390;2022-07-29T22:13:48;5.68;;;3.95;;
63664;SDS011;49820;33.966;73.390;2022-07-29T22:16:20;5.43;;;3.53;;
63664;SDS011;49820;33.966;73.390;2022-07-29T22:18:50;6.82;;;4.07;;
63664;SDS011;49820;33.966;73.390;2022-07-29T22:21:21;5.50;;;4.35;;
63664;SDS011;49820;33.966;73.390;2022-07-29T22:23:52;28.42;;;6.60;;
63664;SDS011;49820;33.966;73.390;2022-07-29T22:26:25;53.25;;;8.38;;
63664;SDS011;49820;33.966;73.390;2022-07-29T22:28:55;44.95;;;7.80;;
63664;SDS011;49820;33.966;73.390;2022-07-29T22:31:25;39.13;;;7.73;;
63664;SDS011;49820;33.966;73.390;2022-07-29T22:33:56;45.90;;;7.28;;
63664;SDS011;49820;33.966;73.390;2022-07-29T22:36:26;79.53;;;9.63;;
63664;SDS011;49820;33.966;73.390;2022-07-29T22:38:57;54.63;;;7.47;;
63664;SDS011;49820;33.966;73.390;2022-07-29T22:41:27;53.10;;;7.45;;
63664;SDS011;49820;33.966;73.390;2022-07-29T22:43:58;133.05;;;11.75;;
63664;SDS011;49820;33.966;73.390;2022-07-29T22:46:28;67.38;;;8.57;;
63664;SDS011;49820;33.966;73.390;2022-07-29T22:49:01;77.20;;;8.98;;
63664;SDS011;49820;33.966;73.390;2022-07-29T22:51:33;92.57;;;10.10;;
63664;SDS011;49820;33.966;73.390;2022-07-29T22:54:03;65.82;;;8.75;;
63664;SDS011;49820;33.966;73.390;2022-07-29T22:56:36;10.23;;;6.78;;
63664;SDS011;49820;33.966;73.390;2022-07-29T22:59:07;11.03;;;5.87;;
63664;SDS011;49820;33.966;73.390;2022-07-29T23:01:38;17.50;;;5.95;;
63664;SDS011;49820;33.966;73.390;2022-07-29T23:04:09;7.57;;;5.45;;
63664;SDS011;49820;33.966;73.390;2022-07-29T23:06:39;7.47;;;6.18;;
63664;SDS011;49820;33.966;73.390;2022-07-29T23:09:11;7.82;;;6.05;;
63664;SDS011;49820;33.966;73.390;2022-07-29T23:11:42;7.80;;;5.32;;
63664;SDS011;49820;33.966;73.390;2022-07-29T23:14:13;7.72;;;5.18;;
63664;SDS011;49820;33.966;73.390;2022-07-29T23:16:45;8.27;;;6.20;;
63664;SDS011;49820;33.966;73.390;2022-07-29T23:19:15;8.00;;;5.38;;
63664;SDS011;49820;33.966;73.390;2022-07-29T23:21:47;7.60;;;5.63;;
63664;SDS011;49820;33.966;73.390;2022-07-29T23:24:18;8.25;;;6.00;;
63664;SDS011;49820;33.966;73.390;2022-07-29T23:26:47;7.93;;;5.67;;
63664;SDS011;49820;33.966;73.390;2022-07-29T23:29:18;7.40;;;5.88;;
63664;SDS011;49820;33.966;73.390;2022-07-29T23:31:51;7.85;;;6.18;;
63664;SDS011;49820;33.966;73.390;2022-07-29T23:34:22;8.30;;;6.28;;
63664;SDS011;49820;33.966;73.390;2022-07-29T23:36:53;7.93;;;5.85;;
63664;SDS011;49820;33.966;73.390;2022-07-29T23:39:24;9.60;;;6.03;;
63664;SDS011;49820;33.966;73.390;2022-07-29T23:41:57;8.63;;;5.60;;
63664;SDS011;49820;33.966;73.390;2022-07-29T23:44:27;8.32;;;6.20;;
63664;SDS011;49820;33.966;73.390;2022-07-29T23:46:58;7.43;;;5.45;;
